sensor_id;sensor_type;location;lat;lon;timestamp;temperature;humidity
74416;SHT31;62850;42.428;25.618;2023-08-17T00:00:56;24.61;53.24
74416;SHT31;62850;42.428;25.618;2023-08-17T00:03:24;24.69;53.18
74416;SHT31;62850;42.428;25.618;2023-08-17T00:05:50;24.71;53.07
74416;SHT31;62850;42.428;25.618;2023-08-17T00:08:16;24.66;52.98
74416;SHT31;62850;42.428;25.618;2023-08-17T00:10:43;24.72;52.90
74416;SHT31;62850;42.428;25.618;2023-08-17T00:13:09;24.68;53.00
74416;SHT31;62850;42.428;25.618;2023-08-17T00:15:36;24.72;52.87
74416;SHT31;62850;42.428;25.618;2023-08-17T00:18:02;24.69;52.90
74416;SHT31;62850;42.428;25.618;2023-08-17T00:20:28;24.65;52.97
74416;SHT31;62850;42.428;25.618;2023-08-17T00:22:55;24.61;52.94
74416;SHT31;62850;42.428;25.618;2023-08-17T00:25:23;24.68;52.69
74416;SHT31;62850;42.428;25.618;2023-08-17T00:27:50;24.65;52.66
74416;SHT31;62850;42.428;25.618;2023-08-17T00:30:16;24.66;52.54
74416;SHT31;62850;42.428;25.618;2023-08-17T00:32:42;24.65;52.54
74416;SHT31;62850;42.428;25.618;2023-08-17T00:35:08;24.66;52.50
74416;SHT31;62850;42.428;25.618;2023-08-17T00:37:34;24.69;52.23
74416;SHT31;62850;42.428;25.618;2023-08-17T00:40:00;24.72;52.02
74416;SHT31;62850;42.428;25.618;2023-08-17T00:42:26;24.66;52.06
74416;SHT31;62850;42.428;25.618;2023-08-17T00:44:53;24.65;51.90
74416;SHT31;62850;42.428;25.618;2023-08-17T00:47:21;24.72;51.69
74416;SHT31;62850;42.428;25.618;2023-08-17T00:49:48;24.65;51.66
74416;SHT31;62850;42.428;25.618;2023-08-17T00:52:14;24.68;51.61
74416;SHT31;62850;42.428;25.618;2023-08-17T00:54:40;24.73;51.52
74416;SHT31;62850;42.428;25.618;2023-08-17T00:57:08;24.71;51.64
74416;SHT31;62850;42.428;25.618;2023-08-17T00:59:36;24.66;51.78
74416;SHT31;62850;42.428;25.618;2023-08-17T01:02:03;24.71;51.58
74416;SHT31;62850;42.428;25.618;2023-08-17T01:04:29;24.71;51.63
74416;SHT31;62850;42.428;25.618;2023-08-17T01:06:55;24.75;51.53
74416;SHT31;62850;42.428;25.618;2023-08-17T01:09:22;24.71;51.57
74416;SHT31;62850;42.428;25.618;2023-08-17T01:11:54;24.75;51.48
74416;SHT31;62850;42.428;25.618;2023-08-17T01:14:30;24.73;51.49
74416;SHT31;62850;42.428;25.618;2023-08-17T01:17:02;24.66;51.69
74416;SHT31;62850;42.428;25.618;2023-08-17T01:19:29;24.68;51.60
74416;SHT31;62850;42.428;25.618;2023-08-17T01:22:07;24.77;51.42
74416;SHT31;62850;42.428;25.618;2023-08-17T01:24:34;24.73;51.63
74416;SHT31;62850;42.428;25.618;2023-08-17T01:27:00;24.68;51.86
74416;SHT31;62850;42.428;25.618;2023-08-17T01:29:26;24.65;51.82
74416;SHT31;62850;42.428;25.618;2023-08-17T01:34:40;24.66;51.86
74416;SHT31;62850;42.428;25.618;2023-08-17T01:37:07;24.65;52.15
74416;SHT31;62850;42.428;25.618;2023-08-17T01:39:43;24.58;52.53
74416;SHT31;62850;42.428;25.618;2023-08-17T01:42:13;24.59;52.77
74416;SHT31;62850;42.428;25.618;2023-08-17T01:44:39;24.56;53.05
74416;SHT31;62850;42.428;25.618;2023-08-17T01:47:06;24.51;53.28
74416;SHT31;62850;42.428;25.618;2023-08-17T01:49:33;24.49;53.32
74416;SHT31;62850;42.428;25.618;2023-08-17T01:51:59;24.49;53.37
74416;SHT31;62850;42.428;25.618;2023-08-17T01:54:26;24.44;53.56
74416;SHT31;62850;42.428;25.618;2023-08-17T01:56:54;24.39;53.41
74416;SHT31;62850;42.428;25.618;2023-08-17T01:59:21;24.41;53.35
74416;SHT31;62850;42.428;25.618;2023-08-17T02:01:47;24.42;53.41
74416;SHT31;62850;42.428;25.618;2023-08-17T02:04:14;24.39;53.41
74416;SHT31;62850;42.428;25.618;2023-08-17T02:06:40;24.39;53.39
74416;SHT31;62850;42.428;25.618;2023-08-17T02:09:06;24.35;53.50
74416;SHT31;62850;42.428;25.618;2023-08-17T02:11:32;24.36;53.52
74416;SHT31;62850;42.428;25.618;2023-08-17T02:13:59;24.35;53.56
74416;SHT31;62850;42.428;25.618;2023-08-17T02:16:25;24.32;53.63
74416;SHT31;62850;42.428;25.618;2023-08-17T02:18:52;24.24;53.88
74416;SHT31;62850;42.428;25.618;2023-08-17T02:21:19;24.31;53.65
74416;SHT31;62850;42.428;25.618;2023-08-17T02:23:45;24.34;53.50
74416;SHT31;62850;42.428;25.618;2023-08-17T02:26:11;24.29;53.59
74416;SHT31;62850;42.428;25.618;2023-08-17T02:28:37;24.29;53.48
74416;SHT31;62850;42.428;25.618;2023-08-17T02:31:03;24.28;53.28
74416;SHT31;62850;42.428;25.618;2023-08-17T02:33:29;24.31;53.22
74416;SHT31;62850;42.428;25.618;2023-08-17T02:35:56;24.29;53.19
74416;SHT31;62850;42.428;25.618;2023-08-17T02:38:23;24.29;53.06
74416;SHT31;62850;42.428;25.618;2023-08-17T02:40:51;24.31;53.00
74416;SHT31;62850;42.428;25.618;2023-08-17T02:43:17;24.36;53.24
74416;SHT31;62850;42.428;25.618;2023-08-17T02:45:43;24.36;53.13
74416;SHT31;62850;42.428;25.618;2023-08-17T02:48:09;24.44;52.69
74416;SHT31;62850;42.428;25.618;2023-08-17T02:50:35;24.44;52.68
74416;SHT31;62850;42.428;25.618;2023-08-17T02:53:01;24.49;52.35
74416;SHT31;62850;42.428;25.618;2023-08-17T02:55:28;24.55;52.78
74416;SHT31;62850;42.428;25.618;2023-08-17T02:57:54;24.52;52.36
74416;SHT31;62850;42.428;25.618;2023-08-17T03:00:19;24.48;52.48
74416;SHT31;62850;42.428;25.618;2023-08-17T03:02:45;24.54;52.55
74416;SHT31;62850;42.428;25.618;2023-08-17T03:05:11;24.49;52.73
74416;SHT31;62850;42.428;25.618;2023-08-17T03:07:38;24.52;52.83
74416;SHT31;62850;42.428;25.618;2023-08-17T03:10:05;24.51;53.10
74416;SHT31;62850;42.428;25.618;2023-08-17T03:12:31;24.51;52.53
74416;SHT31;62850;42.428;25.618;2023-08-17T03:14:57;24.52;52.46
74416;SHT31;62850;42.428;25.618;2023-08-17T03:17:24;24.49;53.09
74416;SHT31;62850;42.428;25.618;2023-08-17T03:19:50;24.47;52.87
74416;SHT31;62850;42.428;25.618;2023-08-17T03:22:17;24.45;52.60
74416;SHT31;62850;42.428;25.618;2023-08-17T03:24:43;24.47;52.81
74416;SHT31;62850;42.428;25.618;2023-08-17T03:27:09;24.47;52.52
74416;SHT31;62850;42.428;25.618;2023-08-17T03:29:35;24.51;52.55
74416;SHT31;62850;42.428;25.618;2023-08-17T03:32:02;24.51;52.45
74416;SHT31;62850;42.428;25.618;2023-08-17T03:34:28;24.49;52.50
74416;SHT31;62850;42.428;25.618;2023-08-17T03:36:55;24.45;52.61
74416;SHT31;62850;42.428;25.618;2023-08-17T03:39:22;24.47;52.70
74416;SHT31;62850;42.428;25.618;2023-08-17T03:41:48;24.48;52.67
74416;SHT31;62850;42.428;25.618;2023-08-17T03:44:15;24.47;52.63
74416;SHT31;62850;42.428;25.618;2023-08-17T03:46:41;24.44;52.84
74416;SHT31;62850;42.428;25.618;2023-08-17T03:49:09;24.38;52.98
74416;SHT31;62850;42.428;25.618;2023-08-17T03:51:36;24.34;53.18
74416;SHT31;62850;42.428;25.618;2023-08-17T03:54:02;24.35;53.09
74416;SHT31;62850;42.428;25.618;2023-08-17T03:56:29;24.36;53.13
74416;SHT31;62850;42.428;25.618;2023-08-17T03:58:55;24.38;53.14
74416;SHT31;62850;42.428;25.618;2023-08-17T04:01:22;24.36;53.06
74416;SHT31;62850;42.428;25.618;2023-08-17T04:03:49;24.42;53.00
74416;SHT31;62850;42.428;25.618;2023-08-17T04:06:16;24.45;52.97
74416;SHT31;62850;42.428;25.618;2023-08-17T04:08:42;24.47;52.93
74416;SHT31;62850;42.428;25.618;2023-08-17T04:11:09;24.48;53.09
74416;SHT31;62850;42.428;25.618;2023-08-17T04:13:36;24.47;53.16
74416;SHT31;62850;42.428;25.618;2023-08-17T04:16:02;24.51;53.10
74416;SHT31;62850;42.428;25.618;2023-08-17T04:18:29;24.56;52.99
74416;SHT31;62850;42.428;25.618;2023-08-17T04:20:56;24.62;52.83
74416;SHT31;62850;42.428;25.618;2023-08-17T04:23:23;24.65;52.93
74416;SHT31;62850;42.428;25.618;2023-08-17T04:25:50;24.71;52.83
74416;SHT31;62850;42.428;25.618;2023-08-17T04:28:17;24.77;52.71
74416;SHT31;62850;42.428;25.618;2023-08-17T04:30:44;24.85;52.74
74416;SHT31;62850;42.428;25.618;2023-08-17T04:33:11;24.89;52.51
74416;SHT31;62850;42.428;25.618;2023-08-17T04:35:37;24.95;52.47
74416;SHT31;62850;42.428;25.618;2023-08-17T04:38:04;24.99;52.47
74416;SHT31;62850;42.428;25.618;2023-08-17T04:40:31;25.04;52.24
74416;SHT31;62850;42.428;25.618;2023-08-17T04:42:59;25.07;52.29
74416;SHT31;62850;42.428;25.618;2023-08-17T04:45:25;25.17;52.16
74416;SHT31;62850;42.428;25.618;2023-08-17T04:47:52;25.17;51.95
74416;SHT31;62850;42.428;25.618;2023-08-17T04:50:19;25.23;51.78
74416;SHT31;62850;42.428;25.618;2023-08-17T04:52:45;25.33;51.49
74416;SHT31;62850;42.428;25.618;2023-08-17T04:55:12;25.35;51.40
74416;SHT31;62850;42.428;25.618;2023-08-17T04:57:39;25.43;51.22
74416;SHT31;62850;42.428;25.618;2023-08-17T05:00:05;25.48;51.06
74416;SHT31;62850;42.428;25.618;2023-08-17T05:02:35;25.53;51.05
74416;SHT31;62850;42.428;25.618;2023-08-17T05:05:05;25.57;50.84
74416;SHT31;62850;42.428;25.618;2023-08-17T05:07:33;25.67;50.74
74416;SHT31;62850;42.428;25.618;2023-08-17T05:10:00;25.68;50.80
74416;SHT31;62850;42.428;25.618;2023-08-17T05:12:27;25.72;50.81
74416;SHT31;62850;42.428;25.618;2023-08-17T05:14:54;25.81;50.57
74416;SHT31;62850;42.428;25.618;2023-08-17T05:17:21;25.89;50.56
74416;SHT31;62850;42.428;25.618;2023-08-17T05:19:47;25.96;50.44
74416;SHT31;62850;42.428;25.618;2023-08-17T05:22:13;26.06;50.50
74416;SHT31;62850;42.428;25.618;2023-08-17T05:24:40;26.12;50.14
74416;SHT31;62850;42.428;25.618;2023-08-17T05:27:07;26.22;49.94
74416;SHT31;62850;42.428;25.618;2023-08-17T05:29:33;26.30;48.88
74416;SHT31;62850;42.428;25.618;2023-08-17T05:31:59;26.43;48.28
74416;SHT31;62850;42.428;25.618;2023-08-17T05:34:26;26.51;47.75
74416;SHT31;62850;42.428;25.618;2023-08-17T05:36:52;26.61;47.22
74416;SHT31;62850;42.428;25.618;2023-08-17T05:39:18;26.71;47.84
74416;SHT31;62850;42.428;25.618;2023-08-17T05:41:44;26.79;47.10
74416;SHT31;62850;42.428;25.618;2023-08-17T05:44:10;26.88;46.98
74416;SHT31;62850;42.428;25.618;2023-08-17T05:46:37;27.01;47.03
74416;SHT31;62850;42.428;25.618;2023-08-17T05:49:04;27.04;46.78
74416;SHT31;62850;42.428;25.618;2023-08-17T05:51:31;27.11;46.48
74416;SHT31;62850;42.428;25.618;2023-08-17T05:53:57;27.18;46.39
74416;SHT31;62850;42.428;25.618;2023-08-17T05:56:24;27.28;46.65
74416;SHT31;62850;42.428;25.618;2023-08-17T05:58:52;27.34;46.14
74416;SHT31;62850;42.428;25.618;2023-08-17T06:01:18;27.42;46.00
74416;SHT31;62850;42.428;25.618;2023-08-17T06:03:44;27.50;45.95
74416;SHT31;62850;42.428;25.618;2023-08-17T06:06:11;27.59;46.32
74416;SHT31;62850;42.428;25.618;2023-08-17T06:08:38;27.62;45.84
74416;SHT31;62850;42.428;25.618;2023-08-17T06:11:05;27.62;45.50
74416;SHT31;62850;42.428;25.618;2023-08-17T06:13:31;27.69;45.75
74416;SHT31;62850;42.428;25.618;2023-08-17T06:15:57;27.79;45.53
74416;SHT31;62850;42.428;25.618;2023-08-17T06:18:26;27.87;45.09
74416;SHT31;62850;42.428;25.618;2023-08-17T06:20:53;27.86;45.17
74416;SHT31;62850;42.428;25.618;2023-08-17T06:23:20;27.86;45.01
74416;SHT31;62850;42.428;25.618;2023-08-17T06:25:46;27.83;44.95
74416;SHT31;62850;42.428;25.618;2023-08-17T06:28:12;27.92;45.81
74416;SHT31;62850;42.428;25.618;2023-08-17T06:30:38;27.99;45.45
74416;SHT31;62850;42.428;25.618;2023-08-17T06:33:05;28.04;45.65
74416;SHT31;62850;42.428;25.618;2023-08-17T06:35:31;28.14;45.39
74416;SHT31;62850;42.428;25.618;2023-08-17T06:37:58;28.17;44.55
74416;SHT31;62850;42.428;25.618;2023-08-17T06:40:25;28.20;44.22
74416;SHT31;62850;42.428;25.618;2023-08-17T06:42:52;28.29;44.81
74416;SHT31;62850;42.428;25.618;2023-08-17T06:45:20;28.40;44.11
74416;SHT31;62850;42.428;25.618;2023-08-17T06:47:46;28.45;40.92
74416;SHT31;62850;42.428;25.618;2023-08-17T06:50:14;28.62;40.31
74416;SHT31;62850;42.428;25.618;2023-08-17T06:52:41;28.69;39.68
74416;SHT31;62850;42.428;25.618;2023-08-17T06:55:08;28.78;39.26
74416;SHT31;62850;42.428;25.618;2023-08-17T06:57:36;28.88;38.14
74416;SHT31;62850;42.428;25.618;2023-08-17T07:00:03;28.91;37.50
74416;SHT31;62850;42.428;25.618;2023-08-17T07:02:33;29.00;37.18
74416;SHT31;62850;42.428;25.618;2023-08-17T07:05:00;29.12;37.33
74416;SHT31;62850;42.428;25.618;2023-08-17T07:07:27;29.20;37.19
74416;SHT31;62850;42.428;25.618;2023-08-17T07:09:54;29.34;36.41
74416;SHT31;62850;42.428;25.618;2023-08-17T07:12:20;29.40;35.84
74416;SHT31;62850;42.428;25.618;2023-08-17T07:14:46;29.50;35.22
74416;SHT31;62850;42.428;25.618;2023-08-17T07:17:12;29.50;34.92
74416;SHT31;62850;42.428;25.618;2023-08-17T07:19:38;29.63;34.20
74416;SHT31;62850;42.428;25.618;2023-08-17T07:22:05;29.84;34.55
74416;SHT31;62850;42.428;25.618;2023-08-17T07:24:31;30.06;34.31
74416;SHT31;62850;42.428;25.618;2023-08-17T07:26:58;30.22;33.97
74416;SHT31;62850;42.428;25.618;2023-08-17T07:29:25;30.33;33.65
74416;SHT31;62850;42.428;25.618;2023-08-17T07:31:52;30.55;34.07
74416;SHT31;62850;42.428;25.618;2023-08-17T07:34:20;30.69;33.67
74416;SHT31;62850;42.428;25.618;2023-08-17T07:36:46;30.72;33.37
74416;SHT31;62850;42.428;25.618;2023-08-17T07:39:12;30.90;33.45
74416;SHT31;62850;42.428;25.618;2023-08-17T07:41:39;31.18;33.69
74416;SHT31;62850;42.428;25.618;2023-08-17T07:44:05;31.17;33.86
74416;SHT31;62850;42.428;25.618;2023-08-17T07:46:32;31.22;33.94
74416;SHT31;62850;42.428;25.618;2023-08-17T07:48:57;31.38;33.75
74416;SHT31;62850;42.428;25.618;2023-08-17T07:51:25;31.53;33.69
74416;SHT31;62850;42.428;25.618;2023-08-17T07:53:53;31.65;34.07
74416;SHT31;62850;42.428;25.618;2023-08-17T07:56:21;31.97;33.51
74416;SHT31;62850;42.428;25.618;2023-08-17T07:58:47;32.05;33.55
74416;SHT31;62850;42.428;25.618;2023-08-17T08:01:13;32.33;33.04
74416;SHT31;62850;42.428;25.618;2023-08-17T08:03:40;32.47;33.23
74416;SHT31;62850;42.428;25.618;2023-08-17T08:06:06;32.53;32.70
74416;SHT31;62850;42.428;25.618;2023-08-17T08:08:33;32.63;32.22
74416;SHT31;62850;42.428;25.618;2023-08-17T08:10:59;32.92;31.71
74416;SHT31;62850;42.428;25.618;2023-08-17T08:13:26;33.04;32.12
74416;SHT31;62850;42.428;25.618;2023-08-17T08:15:52;33.22;32.35
74416;SHT31;62850;42.428;25.618;2023-08-17T08:18:18;33.26;31.77
74416;SHT31;62850;42.428;25.618;2023-08-17T08:20:44;33.32;31.70
74416;SHT31;62850;42.428;25.618;2023-08-17T08:23:10;33.47;31.54
74416;SHT31;62850;42.428;25.618;2023-08-17T08:25:38;33.65;31.60
74416;SHT31;62850;42.428;25.618;2023-08-17T08:28:05;33.83;31.16
74416;SHT31;62850;42.428;25.618;2023-08-17T08:30:40;33.83;30.60
74416;SHT31;62850;42.428;25.618;2023-08-17T08:33:06;33.60;31.01
74416;SHT31;62850;42.428;25.618;2023-08-17T08:35:33;33.70;30.79
74416;SHT31;62850;42.428;25.618;2023-08-17T08:38:02;33.18;31.00
74416;SHT31;62850;42.428;25.618;2023-08-17T08:40:29;33.23;31.32
74416;SHT31;62850;42.428;25.618;2023-08-17T08:42:56;33.53;31.66
74416;SHT31;62850;42.428;25.618;2023-08-17T08:45:25;33.83;31.07
74416;SHT31;62850;42.428;25.618;2023-08-17T08:47:53;33.87;30.41
74416;SHT31;62850;42.428;25.618;2023-08-17T08:50:20;33.74;30.17
74416;SHT31;62850;42.428;25.618;2023-08-17T08:53:00;33.65;30.63
74416;SHT31;62850;42.428;25.618;2023-08-17T08:55:37;33.62;30.95
74416;SHT31;62850;42.428;25.618;2023-08-17T08:58:04;34.00;30.81
74416;SHT31;62850;42.428;25.618;2023-08-17T09:00:34;34.17;30.63
74416;SHT31;62850;42.428;25.618;2023-08-17T09:03:02;33.89;29.17
74416;SHT31;62850;42.428;25.618;2023-08-17T09:05:31;34.00;29.69
74416;SHT31;62850;42.428;25.618;2023-08-17T09:08:00;34.45;29.28
74416;SHT31;62850;42.428;25.618;2023-08-17T09:10:28;34.68;29.01
74416;SHT31;62850;42.428;25.618;2023-08-17T09:12:55;34.66;28.73
74416;SHT31;62850;42.428;25.618;2023-08-17T09:15:23;34.71;28.96
74416;SHT31;62850;42.428;25.618;2023-08-17T09:17:52;34.52;28.70
74416;SHT31;62850;42.428;25.618;2023-08-17T09:20:39;34.86;28.16
74416;SHT31;62850;42.428;25.618;2023-08-17T09:23:16;34.96;28.58
74416;SHT31;62850;42.428;25.618;2023-08-17T09:25:43;34.93;28.48
74416;SHT31;62850;42.428;25.618;2023-08-17T09:28:16;34.92;28.85
74416;SHT31;62850;42.428;25.618;2023-08-17T09:30:59;35.02;28.88
74416;SHT31;62850;42.428;25.618;2023-08-17T09:33:33;34.98;29.24
74416;SHT31;62850;42.428;25.618;2023-08-17T09:36:01;34.88;29.15
74416;SHT31;62850;42.428;25.618;2023-08-17T09:38:28;35.04;29.18
74416;SHT31;62850;42.428;25.618;2023-08-17T09:40:55;35.04;28.68
74416;SHT31;62850;42.428;25.618;2023-08-17T09:43:24;35.09;28.91
74416;SHT31;62850;42.428;25.618;2023-08-17T09:45:55;35.16;28.61
74416;SHT31;62850;42.428;25.618;2023-08-17T09:48:26;35.25;28.74
74416;SHT31;62850;42.428;25.618;2023-08-17T09:50:56;35.31;28.72
74416;SHT31;62850;42.428;25.618;2023-08-17T09:53:22;35.29;28.85
74416;SHT31;62850;42.428;25.618;2023-08-17T09:55:48;35.44;28.47
74416;SHT31;62850;42.428;25.618;2023-08-17T09:58:15;35.44;28.28
74416;SHT31;62850;42.428;25.618;2023-08-17T10:00:45;35.31;28.00
74416;SHT31;62850;42.428;25.618;2023-08-17T10:03:13;35.40;27.71
74416;SHT31;62850;42.428;25.618;2023-08-17T10:05:41;35.70;27.52
74416;SHT31;62850;42.428;25.618;2023-08-17T10:08:10;35.76;27.25
74416;SHT31;62850;42.428;25.618;2023-08-17T10:10:42;35.33;27.99
74416;SHT31;62850;42.428;25.618;2023-08-17T10:21:29;35.68;28.33
74416;SHT31;62850;42.428;25.618;2023-08-17T10:23:58;35.82;27.75
74416;SHT31;62850;42.428;25.618;2023-08-17T10:26:25;35.88;27.87
74416;SHT31;62850;42.428;25.618;2023-08-17T10:28:52;35.80;27.58
74416;SHT31;62850;42.428;25.618;2023-08-17T10:31:18;35.94;27.53
74416;SHT31;62850;42.428;25.618;2023-08-17T10:33:46;35.81;27.54
74416;SHT31;62850;42.428;25.618;2023-08-17T10:36:13;35.98;27.47
74416;SHT31;62850;42.428;25.618;2023-08-17T10:38:40;36.04;27.84
74416;SHT31;62850;42.428;25.618;2023-08-17T10:41:10;36.15;26.95
74416;SHT31;62850;42.428;25.618;2023-08-17T10:43:59;36.12;26.74
74416;SHT31;62850;42.428;25.618;2023-08-17T10:46:36;36.21;26.64
74416;SHT31;62850;42.428;25.618;2023-08-17T10:49:06;35.98;26.17
74416;SHT31;62850;42.428;25.618;2023-08-17T10:51:33;35.99;26.65
74416;SHT31;62850;42.428;25.618;2023-08-17T10:54:02;36.28;26.84
74416;SHT31;62850;42.428;25.618;2023-08-17T10:56:29;36.25;26.82
74416;SHT31;62850;42.428;25.618;2023-08-17T10:59:02;36.14;27.36
74416;SHT31;62850;42.428;25.618;2023-08-17T11:01:35;36.19;27.11
74416;SHT31;62850;42.428;25.618;2023-08-17T11:04:16;36.26;27.17
74416;SHT31;62850;42.428;25.618;2023-08-17T11:06:43;35.98;27.25
74416;SHT31;62850;42.428;25.618;2023-08-17T11:09:10;35.89;27.90
74416;SHT31;62850;42.428;25.618;2023-08-17T11:11:38;35.91;27.76
74416;SHT31;62850;42.428;25.618;2023-08-17T11:14:04;36.04;28.20
74416;SHT31;62850;42.428;25.618;2023-08-17T11:16:30;35.78;28.08
74416;SHT31;62850;42.428;25.618;2023-08-17T11:18:57;35.77;27.95
74416;SHT31;62850;42.428;25.618;2023-08-17T11:21:26;35.65;28.41
74416;SHT31;62850;42.428;25.618;2023-08-17T11:23:55;35.62;28.53
74416;SHT31;62850;42.428;25.618;2023-08-17T11:26:23;35.58;27.98
74416;SHT31;62850;42.428;25.618;2023-08-17T11:28:50;35.64;28.68
74416;SHT31;62850;42.428;25.618;2023-08-17T11:31:17;35.58;28.45
74416;SHT31;62850;42.428;25.618;2023-08-17T11:33:44;35.64;28.84
74416;SHT31;62850;42.428;25.618;2023-08-17T11:36:12;35.46;29.10
74416;SHT31;62850;42.428;25.618;2023-08-17T11:38:40;35.87;28.92
74416;SHT31;62850;42.428;25.618;2023-08-17T11:41:08;36.09;28.73
74416;SHT31;62850;42.428;25.618;2023-08-17T11:43:36;36.25;27.81
74416;SHT31;62850;42.428;25.618;2023-08-17T11:46:03;36.36;28.26
74416;SHT31;62850;42.428;25.618;2023-08-17T11:48:30;36.45;28.44
74416;SHT31;62850;42.428;25.618;2023-08-17T11:50:56;36.42;28.44
74416;SHT31;62850;42.428;25.618;2023-08-17T11:53:24;36.62;28.27
74416;SHT31;62850;42.428;25.618;2023-08-17T11:55:50;36.72;28.09
74416;SHT31;62850;42.428;25.618;2023-08-17T11:58:17;36.53;28.35
74416;SHT31;62850;42.428;25.618;2023-08-17T12:00:44;36.42;28.91
74416;SHT31;62850;42.428;25.618;2023-08-17T12:03:13;36.72;28.90
74416;SHT31;62850;42.428;25.618;2023-08-17T12:05:46;36.80;28.17
74416;SHT31;62850;42.428;25.618;2023-08-17T12:08:13;36.96;29.00
74416;SHT31;62850;42.428;25.618;2023-08-17T12:10:41;36.96;28.15
74416;SHT31;62850;42.428;25.618;2023-08-17T12:13:12;37.07;28.06
74416;SHT31;62850;42.428;25.618;2023-08-17T12:15:40;37.06;28.49
74416;SHT31;62850;42.428;25.618;2023-08-17T12:18:07;36.94;28.84
74416;SHT31;62850;42.428;25.618;2023-08-17T12:20:33;37.11;28.85
74416;SHT31;62850;42.428;25.618;2023-08-17T12:23:03;36.94;29.21
74416;SHT31;62850;42.428;25.618;2023-08-17T12:25:29;37.13;29.12
74416;SHT31;62850;42.428;25.618;2023-08-17T12:28:00;37.16;28.54
74416;SHT31;62850;42.428;25.618;2023-08-17T12:30:31;37.28;28.13
74416;SHT31;62850;42.428;25.618;2023-08-17T12:32:58;37.04;28.60
74416;SHT31;62850;42.428;25.618;2023-08-17T12:35:25;36.93;29.25
74416;SHT31;62850;42.428;25.618;2023-08-17T12:37:52;36.90;29.50
74416;SHT31;62850;42.428;25.618;2023-08-17T12:40:19;37.16;28.91
74416;SHT31;62850;42.428;25.618;2023-08-17T12:42:45;37.33;28.93
74416;SHT31;62850;42.428;25.618;2023-08-17T12:45:13;37.27;29.05
74416;SHT31;62850;42.428;25.618;2023-08-17T12:47:40;37.20;29.23
74416;SHT31;62850;42.428;25.618;2023-08-17T12:50:07;37.25;28.98
74416;SHT31;62850;42.428;25.618;2023-08-17T12:52:34;37.20;29.06
74416;SHT31;62850;42.428;25.618;2023-08-17T12:55:03;37.33;29.11
74416;SHT31;62850;42.428;25.618;2023-08-17T12:57:30;37.48;29.19
74416;SHT31;62850;42.428;25.618;2023-08-17T12:59:56;37.10;28.98
74416;SHT31;62850;42.428;25.618;2023-08-17T13:02:23;37.06;29.56
74416;SHT31;62850;42.428;25.618;2023-08-17T13:04:49;37.23;29.64
74416;SHT31;62850;42.428;25.618;2023-08-17T13:07:15;37.30;28.99
74416;SHT31;62850;42.428;25.618;2023-08-17T13:09:42;37.24;29.39
74416;SHT31;62850;42.428;25.618;2023-08-17T13:12:09;37.21;29.19
74416;SHT31;62850;42.428;25.618;2023-08-17T13:14:36;37.44;29.15
74416;SHT31;62850;42.428;25.618;2023-08-17T13:17:03;37.68;29.04
74416;SHT31;62850;42.428;25.618;2023-08-17T13:19:30;37.17;30.26
74416;SHT31;62850;42.428;25.618;2023-08-17T13:21:57;36.57;30.87
74416;SHT31;62850;42.428;25.618;2023-08-17T13:24:25;35.97;31.45
74416;SHT31;62850;42.428;25.618;2023-08-17T13:26:51;35.70;32.15
74416;SHT31;62850;42.428;25.618;2023-08-17T13:29:20;35.22;32.31
74416;SHT31;62850;42.428;25.618;2023-08-17T13:31:47;35.10;33.30
74416;SHT31;62850;42.428;25.618;2023-08-17T13:34:13;35.02;33.58
74416;SHT31;62850;42.428;25.618;2023-08-17T13:36:40;34.82;33.66
74416;SHT31;62850;42.428;25.618;2023-08-17T13:39:07;34.59;33.82
74416;SHT31;62850;42.428;25.618;2023-08-17T13:41:33;34.72;33.94
74416;SHT31;62850;42.428;25.618;2023-08-17T13:44:00;34.59;33.81
74416;SHT31;62850;42.428;25.618;2023-08-17T13:46:29;34.41;34.09
74416;SHT31;62850;42.428;25.618;2023-08-17T13:48:56;34.03;34.42
74416;SHT31;62850;42.428;25.618;2023-08-17T13:51:23;34.03;34.42
74416;SHT31;62850;42.428;25.618;2023-08-17T13:53:49;34.05;34.84
74416;SHT31;62850;42.428;25.618;2023-08-17T13:56:17;33.93;35.51
74416;SHT31;62850;42.428;25.618;2023-08-17T13:58:46;34.17;35.54
74416;SHT31;62850;42.428;25.618;2023-08-17T14:01:13;34.44;34.03
74416;SHT31;62850;42.428;25.618;2023-08-17T14:03:40;34.34;34.29
74416;SHT31;62850;42.428;25.618;2023-08-17T14:06:08;34.13;34.97
74416;SHT31;62850;42.428;25.618;2023-08-17T14:08:35;33.69;34.79
74416;SHT31;62850;42.428;25.618;2023-08-17T14:11:01;33.50;35.37
74416;SHT31;62850;42.428;25.618;2023-08-17T14:13:28;33.63;34.67
74416;SHT31;62850;42.428;25.618;2023-08-17T14:15:55;33.76;34.44
74416;SHT31;62850;42.428;25.618;2023-08-17T14:18:24;33.97;34.00
74416;SHT31;62850;42.428;25.618;2023-08-17T14:20:51;34.21;33.97
74416;SHT31;62850;42.428;25.618;2023-08-17T14:23:18;34.38;34.72
74416;SHT31;62850;42.428;25.618;2023-08-17T14:25:44;34.56;34.55
74416;SHT31;62850;42.428;25.618;2023-08-17T14:28:11;34.71;33.97
74416;SHT31;62850;42.428;25.618;2023-08-17T14:30:37;34.68;33.98
74416;SHT31;62850;42.428;25.618;2023-08-17T14:33:04;34.33;34.19
74416;SHT31;62850;42.428;25.618;2023-08-17T14:35:30;34.11;34.62
74416;SHT31;62850;42.428;25.618;2023-08-17T14:37:57;33.80;34.68
74416;SHT31;62850;42.428;25.618;2023-08-17T14:40:29;33.56;35.20
74416;SHT31;62850;42.428;25.618;2023-08-17T14:42:58;33.30;35.93
74416;SHT31;62850;42.428;25.618;2023-08-17T14:45:25;33.14;36.06
74416;SHT31;62850;42.428;25.618;2023-08-17T14:47:52;33.12;35.75
74416;SHT31;62850;42.428;25.618;2023-08-17T14:50:18;33.05;35.68
74416;SHT31;62850;42.428;25.618;2023-08-17T14:52:44;32.92;35.85
74416;SHT31;62850;42.428;25.618;2023-08-17T14:55:12;32.82;35.92
74416;SHT31;62850;42.428;25.618;2023-08-17T14:57:37;32.75;36.11
74416;SHT31;62850;42.428;25.618;2023-08-17T15:00:04;32.61;36.76
74416;SHT31;62850;42.428;25.618;2023-08-17T15:02:30;32.63;36.63
74416;SHT31;62850;42.428;25.618;2023-08-17T15:04:56;32.67;36.31
74416;SHT31;62850;42.428;25.618;2023-08-17T15:07:22;32.79;36.41
74416;SHT31;62850;42.428;25.618;2023-08-17T15:09:49;33.05;35.88
74416;SHT31;62850;42.428;25.618;2023-08-17T15:12:15;33.32;35.88
74416;SHT31;62850;42.428;25.618;2023-08-17T15:14:42;33.43;36.02
74416;SHT31;62850;42.428;25.618;2023-08-17T15:17:08;33.39;36.57
74416;SHT31;62850;42.428;25.618;2023-08-17T15:19:38;33.30;36.65
74416;SHT31;62850;42.428;25.618;2023-08-17T15:22:04;33.19;36.75
74416;SHT31;62850;42.428;25.618;2023-08-17T15:24:29;33.19;36.77
74416;SHT31;62850;42.428;25.618;2023-08-17T15:26:55;33.16;36.94